Time;durP1;ratioP1;P1;durP2;ratioP2;P2;SDS_P1;SDS_P2;PMS_P1;PMS_P2;Temp;Humidity;BMP_temperature;BMP_pressure;BME280_temperature;BME280_humidity;BME280_pressure;Samples;Min_cycle;Max_cycle;Signal;HPM_P1;HPM_P2
2022/03/19 00:02:24;;;;;;;12.37;5.20;;;;;;;;;;5058679;28;20232;-72
2022/03/19 00:04:53;;;;;;;12.97;5.40;;;;;;;;;;5065751;28;20211;-72
2022/03/19 00:07:21;;;;;;;11.20;5.37;;;;;;;;;;5081907;28;20218;-73
2022/03/19 00:09:46;;;;;;;13.17;5.33;;;;;;;;;;5069926;28;20218;-71
2022/03/19 00:12:16;;;;;;;16.17;5.77;;;;;;;;;;5052487;28;20265;-72
2022/03/19 00:14:45;;;;;;;11.70;4.93;;;;;;;;;;5047931;28;20230;-73
2022/03/19 00:17:15;;;;;;;13.47;6.03;;;;;;;;;;5057356;28;20218;-74
2022/03/19 00:19:40;;;;;;;11.80;5.20;;;;;;;;;;5057161;28;20226;-72
2022/03/19 00:22:08;;;;;;;12.93;5.17;;;;;;;;;;5047698;28;20313;-72
2022/03/19 00:24:35;;;;;;;10.77;5.30;;;;;;;;;;5077453;28;20215;-72
2022/03/19 00:27:03;;;;;;;12.13;5.70;;;;;;;;;;5073782;28;20206;-72
2022/03/19 00:29:30;;;;;;;13.43;5.33;;;;;;;;;;5073602;28;20230;-73
2022/03/19 00:31:56;;;;;;;16.07;6.17;;;;;;;;;;5058694;28;20226;-72
2022/03/19 00:34:21;;;;;;;13.63;5.53;;;;;;;;;;5076015;28;21387;-72
2022/03/19 00:36:47;;;;;;;15.20;6.40;;;;;;;;;;5059455;28;20235;-72
2022/03/19 00:39:15;;;;;;;15.53;6.33;;;;;;;;;;5053815;28;20225;-72
2022/03/19 00:41:40;;;;;;;16.83;6.70;;;;;;;;;;5085080;28;20410;-72
2022/03/19 00:44:06;;;;;;;13.17;6.77;;;;;;;;;;5091753;28;20211;-72
2022/03/19 00:46:31;;;;;;;13.37;6.10;;;;;;;;;;5073414;28;20688;-72
2022/03/19 00:48:59;;;;;;;16.10;6.70;;;;;;;;;;5067128;28;20215;-72
2022/03/19 00:51:25;;;;;;;16.70;6.90;;;;;;;;;;5066601;28;20589;-73
2022/03/19 00:53:53;;;;;;;13.07;6.50;;;;;;;;;;5085558;28;20218;-73
2022/03/19 00:56:18;;;;;;;14.63;6.30;;;;;;;;;;5089829;28;20699;-72
2022/03/19 00:58:43;;;;;;;19.27;6.73;;;;;;;;;;5076581;28;20263;-72
2022/03/19 01:01:09;;;;;;;14.90;6.53;;;;;;;;;;5073328;28;20231;-72
2022/03/19 01:03:37;;;;;;;13.53;6.63;;;;;;;;;;5084962;28;20302;-73
2022/03/19 01:06:05;;;;;;;12.87;6.33;;;;;;;;;;5080177;28;20225;-73
2022/03/19 01:08:33;;;;;;;16.10;6.47;;;;;;;;;;5073484;28;20867;-73
2022/03/19 01:11:02;;;;;;;15.23;6.97;;;;;;;;;;5064620;28;20325;-73
2022/03/19 01:13:29;;;;;;;17.13;6.67;;;;;;;;;;5081003;28;20695;-73
2022/03/19 01:15:57;;;;;;;15.77;6.73;;;;;;;;;;5069295;28;20210;-72
2022/03/19 01:18:23;;;;;;;17.77;6.73;;;;;;;;;;5079906;28;20294;-72
2022/03/19 01:20:49;;;;;;;13.70;6.33;;;;;;;;;;5061063;28;20238;-72
2022/03/19 01:23:14;;;;;;;13.43;6.47;;;;;;;;;;5044776;28;20305;-72
2022/03/19 01:25:40;;;;;;;17.07;6.63;;;;;;;;;;5065054;28;20282;-72
2022/03/19 01:28:07;;;;;;;14.10;6.73;;;;;;;;;;5059045;28;20329;-72
2022/03/19 01:30:33;;;;;;;13.83;6.57;;;;;;;;;;5058940;28;20229;-72
2022/03/19 01:33:01;;;;;;;14.67;7.13;;;;;;;;;;5076555;28;20871;-72
2022/03/19 01:35:26;;;;;;;16.30;7.23;;;;;;;;;;5070927;28;20343;-72
2022/03/19 01:37:53;;;;;;;13.83;6.70;;;;;;;;;;5084054;28;20773;-72
2022/03/19 01:40:19;;;;;;;18.93;7.63;;;;;;;;;;5059305;28;20312;-72
2022/03/19 01:42:51;;;;;;;19.53;8.43;;;;;;;;;;5047995;28;20595;-72
2022/03/19 01:45:22;;;;;;;20.00;8.20;;;;;;;;;;5079850;28;20229;-72
2022/03/19 01:47:54;;;;;;;18.87;8.63;;;;;;;;;;5063474;28;20230;-73
2022/03/19 01:50:25;;;;;;;20.47;8.23;;;;;;;;;;5090257;28;20222;-72
2022/03/19 01:52:50;;;;;;;27.33;9.20;;;;;;;;;;5056408;28;20226;-72
2022/03/19 01:55:18;;;;;;;21.33;8.80;;;;;;;;;;5056892;28;20218;-72
2022/03/19 01:57:44;;;;;;;21.53;8.87;;;;;;;;;;5075913;28;20221;-72
2022/03/19 02:00:12;;;;;;;22.23;8.73;;;;;;;;;;5058185;28;20291;-72
2022/03/19 02:02:39;;;;;;;20.93;8.30;;;;;;;;;;5059929;28;20816;-72
2022/03/19 02:05:05;;;;;;;16.13;7.40;;;;;;;;;;5074621;28;20595;-72
2022/03/19 02:07:31;;;;;;;23.63;7.57;;;;;;;;;;5034467;28;20710;-72
2022/03/19 02:10:02;;;;;;;19.07;7.27;;;;;;;;;;5089854;28;20218;-72
2022/03/19 02:12:30;;;;;;;18.83;7.03;;;;;;;;;;5065314;28;20242;-72
2022/03/19 02:14:57;;;;;;;18.23;7.13;;;;;;;;;;5068891;28;20215;-73
2022/03/19 02:17:26;;;;;;;15.43;6.40;;;;;;;;;;5092753;28;20214;-72
2022/03/19 02:19:57;;;;;;;11.80;6.00;;;;;;;;;;5071249;28;20214;-73
2022/03/19 02:22:28;;;;;;;19.10;6.80;;;;;;;;;;5096221;28;20222;-72
2022/03/19 02:27:44;;;;;;;13.33;5.93;;;;;;;;;;5074209;28;20222;-73
2022/03/19 02:30:16;;;;;;;17.97;6.60;;;;;;;;;;5089563;28;20245;-73
2022/03/19 02:32:47;;;;;;;20.50;7.47;;;;;;;;;;5062250;28;20214;-72
2022/03/19 02:35:12;;;;;;;17.97;6.73;;;;;;;;;;5041671;28;20230;-72
2022/03/19 02:37:45;;;;;;;18.10;6.70;;;;;;;;;;5030222;28;20240;-74
2022/03/19 02:40:12;;;;;;;17.23;7.03;;;;;;;;;;5059676;28;20237;-72
2022/03/19 02:42:45;;;;;;;19.80;7.03;;;;;;;;;;5066649;28;20214;-72
2022/03/19 02:45:11;;;;;;;15.50;7.03;;;;;;;;;;5088686;28;20256;-72
2022/03/19 02:47:56;;;;;;;15.73;7.33;;;;;;;;;;5075809;28;20279;-73
2022/03/19 02:50:27;;;;;;;16.13;7.23;;;;;;;;;;5087706;28;20230;-73
2022/03/19 02:52:53;;;;;;;19.43;6.90;;;;;;;;;;5057281;28;20702;-73
2022/03/19 02:55:18;;;;;;;13.27;6.63;;;;;;;;;;5074087;28;20312;-73
2022/03/19 02:57:44;;;;;;;15.20;6.93;;;;;;;;;;5054892;28;20213;-73
2022/03/19 03:00:10;;;;;;;21.70;8.20;;;;;;;;;;5060973;28;20294;-73
2022/03/19 03:02:35;;;;;;;16.70;7.37;;;;;;;;;;5034887;28;20213;-74
2022/03/19 03:05:08;;;;;;;15.90;7.33;;;;;;;;;;5071126;28;20235;-73
2022/03/19 03:07:34;;;;;;;16.70;7.10;;;;;;;;;;5058314;28;20309;-74
2022/03/19 03:10:00;;;;;;;18.53;6.87;;;;;;;;;;5047949;28;20222;-71
2022/03/19 03:12:27;;;;;;;19.27;7.30;;;;;;;;;;5077534;28;20224;-72
2022/03/19 03:14:56;;;;;;;15.50;6.87;;;;;;;;;;5048528;28;20214;-74
2022/03/19 03:17:24;;;;;;;23.37;7.57;;;;;;;;;;5075787;28;20234;-72
2022/03/19 03:19:53;;;;;;;18.90;7.83;;;;;;;;;;5074773;28;20243;-72
2022/03/19 03:22:18;;;;;;;15.87;6.87;;;;;;;;;;5070553;28;20299;-73
2022/03/19 03:24:44;;;;;;;17.97;7.23;;;;;;;;;;5063767;28;20696;-72
2022/03/19 03:27:09;;;;;;;16.23;7.00;;;;;;;;;;5066676;28;20454;-72
2022/03/19 03:29:35;;;;;;;17.20;6.67;;;;;;;;;;5060434;28;20674;-72
2022/03/19 03:32:00;;;;;;;14.23;6.70;;;;;;;;;;5083245;28;20298;-72
2022/03/19 03:34:26;;;;;;;16.50;6.93;;;;;;;;;;5076714;28;20297;-72
2022/03/19 03:36:51;;;;;;;17.20;7.10;;;;;;;;;;5071010;28;20234;-73
2022/03/19 03:39:20;;;;;;;16.50;7.03;;;;;;;;;;5085680;28;20252;-72
2022/03/19 03:41:46;;;;;;;19.73;6.70;;;;;;;;;;5063840;28;20218;-72
2022/03/19 03:44:13;;;;;;;14.17;6.20;;;;;;;;;;5062648;28;20233;-72
2022/03/19 03:46:39;;;;;;;14.57;5.80;;;;;;;;;;5077646;28;20301;-72
2022/03/19 03:49:08;;;;;;;16.93;6.13;;;;;;;;;;5046050;28;20237;-72
2022/03/19 03:51:37;;;;;;;12.40;5.80;;;;;;;;;;5089452;28;20268;-72
2022/03/19 03:54:04;;;;;;;14.90;5.60;;;;;;;;;;5075782;28;20311;-73
2022/03/19 03:56:32;;;;;;;15.53;6.33;;;;;;;;;;5067499;28;20250;-72
2022/03/19 03:58:58;;;;;;;17.37;6.30;;;;;;;;;;5071073;28;20234;-72
2022/03/19 04:01:23;;;;;;;14.83;5.70;;;;;;;;;;5062038;28;20368;-72
2022/03/19 04:03:51;;;;;;;15.50;5.83;;;;;;;;;;5068141;28;20230;-72
2022/03/19 04:06:16;;;;;;;16.60;5.80;;;;;;;;;;5083360;28;20300;-72
2022/03/19 04:08:44;;;;;;;16.23;6.00;;;;;;;;;;5061233;28;20226;-72
2022/03/19 04:11:14;;;;;;;13.63;5.60;;;;;;;;;;5085671;28;20654;-72
2022/03/19 04:13:42;;;;;;;14.20;5.50;;;;;;;;;;5078967;28;20226;-73
2022/03/19 04:16:08;;;;;;;13.63;5.43;;;;;;;;;;5092605;28;20218;-72
2022/03/19 04:18:35;;;;;;;15.03;5.87;;;;;;;;;;5072305;28;20351;-72
2022/03/19 04:21:03;;;;;;;15.93;5.80;;;;;;;;;;5070411;28;20252;-72
2022/03/19 04:23:31;;;;;;;17.33;5.47;;;;;;;;;;5079174;28;20229;-72
2022/03/19 04:25:56;;;;;;;11.00;5.03;;;;;;;;;;5060248;28;20294;-71
2022/03/19 04:28:22;;;;;;;18.50;5.77;;;;;;;;;;5067684;28;20715;-72
2022/03/19 04:30:48;;;;;;;14.23;5.40;;;;;;;;;;5058719;28;20645;-72
2022/03/19 04:33:13;;;;;;;18.03;6.00;;;;;;;;;;5074310;28;20335;-72
2022/03/19 04:38:23;;;;;;;15.33;6.07;;;;;;;;;;5060779;28;20227;-73
2022/03/19 04:40:51;;;;;;;13.23;5.70;;;;;;;;;;5066520;28;20218;-73
2022/03/19 04:43:20;;;;;;;17.50;5.93;;;;;;;;;;5032580;28;20218;-73
2022/03/19 04:45:48;;;;;;;14.77;5.90;;;;;;;;;;5056991;28;21213;-73
2022/03/19 04:48:13;;;;;;;14.50;5.87;;;;;;;;;;5067499;28;20233;-73
2022/03/19 04:50:41;;;;;;;16.87;5.53;;;;;;;;;;5080622;28;20249;-73
2022/03/19 04:53:08;;;;;;;17.30;6.07;;;;;;;;;;5039376;28;20206;-72
2022/03/19 04:55:34;;;;;;;15.67;6.57;;;;;;;;;;5045173;28;20215;-73
2022/03/19 04:58:02;;;;;;;18.00;7.63;;;;;;;;;;5059896;28;20219;-73
2022/03/19 05:00:27;;;;;;;13.17;7.27;;;;;;;;;;5034771;28;20766;-73
2022/03/19 05:02:55;;;;;;;19.37;6.57;;;;;;;;;;5050905;28;20210;-72
2022/03/19 05:05:24;;;;;;;14.90;6.40;;;;;;;;;;5066177;28;20732;-73
2022/03/19 05:07:54;;;;;;;12.67;6.50;;;;;;;;;;5038366;28;20214;-73
2022/03/19 05:13:07;;;;;;;14.77;6.40;;;;;;;;;;5060767;28;20214;-72
2022/03/19 05:15:35;;;;;;;15.87;6.70;;;;;;;;;;5087108;28;20218;-71
2022/03/19 05:18:03;;;;;;;14.57;6.37;;;;;;;;;;5041392;28;20211;-72
2022/03/19 05:20:31;;;;;;;13.67;6.43;;;;;;;;;;5067986;28;20218;-73
2022/03/19 05:22:57;;;;;;;17.87;6.77;;;;;;;;;;5042722;28;20222;-73
2022/03/19 05:25:25;;;;;;;17.07;6.23;;;;;;;;;;5068150;28;20229;-73
2022/03/19 05:27:53;;;;;;;16.03;6.23;;;;;;;;;;5067111;28;20223;-73
2022/03/19 05:30:19;;;;;;;17.20;6.20;;;;;;;;;;5066127;28;20226;-72
2022/03/19 05:32:47;;;;;;;14.77;6.03;;;;;;;;;;5054226;28;20696;-72
2022/03/19 05:35:15;;;;;;;14.73;6.00;;;;;;;;;;5049487;28;20270;-72
2022/03/19 05:37:41;;;;;;;16.43;6.33;;;;;;;;;;5051220;28;20735;-72
2022/03/19 05:40:06;;;;;;;14.83;6.60;;;;;;;;;;5040964;28;20305;-71
2022/03/19 05:42:32;;;;;;;15.90;6.07;;;;;;;;;;5058003;28;20700;-73
2022/03/19 05:44:58;;;;;;;15.03;6.00;;;;;;;;;;5051838;28;20226;-72
2022/03/19 05:47:26;;;;;;;14.93;6.73;;;;;;;;;;5047957;28;20214;-72
2022/03/19 05:49:52;;;;;;;17.03;7.20;;;;;;;;;;5048654;28;20275;-73
2022/03/19 05:52:17;;;;;;;15.50;6.63;;;;;;;;;;5059633;28;20313;-72
2022/03/19 05:54:43;;;;;;;15.47;6.93;;;;;;;;;;5071047;28;20218;-71
2022/03/19 05:57:12;;;;;;;15.83;7.00;;;;;;;;;;5058392;28;20691;-72
2022/03/19 05:59:37;;;;;;;19.77;6.53;;;;;;;;;;5059408;28;20222;-72
2022/03/19 06:02:05;;;;;;;16.50;7.13;;;;;;;;;;5049297;28;20573;-75
2022/03/19 06:04:37;;;;;;;14.03;7.00;;;;;;;;;;5032117;28;20214;-73
2022/03/19 06:07:02;;;;;;;14.53;7.20;;;;;;;;;;5031766;28;20226;-73
2022/03/19 06:09:28;;;;;;;16.70;7.23;;;;;;;;;;5069824;28;20369;-73
2022/03/19 06:11:53;;;;;;;19.33;6.87;;;;;;;;;;5048255;28;20310;-72
2022/03/19 06:14:19;;;;;;;16.70;6.40;;;;;;;;;;5044632;28;20227;-72
2022/03/19 06:16:45;;;;;;;16.20;6.80;;;;;;;;;;5057481;28;20281;-73
2022/03/19 06:19:11;;;;;;;18.23;7.20;;;;;;;;;;5071535;28;20242;-73
2022/03/19 06:21:39;;;;;;;18.23;6.97;;;;;;;;;;5068843;28;20243;-71
2022/03/19 06:24:10;;;;;;;15.87;6.73;;;;;;;;;;5044043;28;20225;-72
2022/03/19 06:26:36;;;;;;;21.47;7.63;;;;;;;;;;5086531;28;20240;-73
2022/03/19 06:29:01;;;;;;;21.80;7.37;;;;;;;;;;5055701;28;20226;-73
2022/03/19 06:31:27;;;;;;;20.90;7.47;;;;;;;;;;5039099;28;20704;-72
2022/03/19 06:33:52;;;;;;;19.40;8.17;;;;;;;;;;5056479;28;20220;-72
2022/03/19 06:39:02;;;;;;;20.07;7.80;;;;;;;;;;5069744;28;20234;-72
2022/03/19 06:41:30;;;;;;;20.33;7.77;;;;;;;;;;5065477;28;20302;-72
2022/03/19 06:43:57;;;;;;;16.07;7.00;;;;;;;;;;5085208;28;20210;-72
2022/03/19 06:46:23;;;;;;;18.90;6.57;;;;;;;;;;5050874;28;20229;-72
2022/03/19 06:48:53;;;;;;;15.80;6.73;;;;;;;;;;5068489;28;20230;-72
2022/03/19 06:51:21;;;;;;;16.23;6.47;;;;;;;;;;5048588;28;20770;-72
2022/03/19 06:53:50;;;;;;;12.63;6.03;;;;;;;;;;5048495;28;20275;-73
2022/03/19 06:56:15;;;;;;;14.67;5.00;;;;;;;;;;5057747;28;20222;-72
2022/03/19 06:58:41;;;;;;;11.30;4.83;;;;;;;;;;5044007;28;20875;-73
2022/03/19 07:01:15;;;;;;;15.17;4.60;;;;;;;;;;5038664;28;20233;-72
2022/03/19 07:03:44;;;;;;;10.63;4.30;;;;;;;;;;5064201;28;20226;-73
2022/03/19 07:06:10;;;;;;;11.07;4.10;;;;;;;;;;5029696;28;20602;-73
2022/03/19 07:08:56;;;;;;;10.80;4.40;;;;;;;;;;5061836;28;20227;-73
2022/03/19 07:11:22;;;;;;;12.13;4.17;;;;;;;;;;5028265;28;20230;-73
2022/03/19 07:13:50;;;;;;;10.83;4.37;;;;;;;;;;5050066;28;20214;-72
2022/03/19 07:16:16;;;;;;;9.10;3.60;;;;;;;;;;5085007;28;20251;-73
2022/03/19 07:18:42;;;;;;;12.60;3.60;;;;;;;;;;5045132;28;20246;-73
2022/03/19 07:21:10;;;;;;;14.73;4.03;;;;;;;;;;5053189;28;20321;-74
2022/03/19 07:23:38;;;;;;;8.43;3.80;;;;;;;;;;5067458;28;20714;-72
2022/03/19 07:26:06;;;;;;;12.60;4.17;;;;;;;;;;5059005;28;20222;-72
2022/03/19 07:28:34;;;;;;;13.97;3.60;;;;;;;;;;5069432;28;20317;-72
2022/03/19 07:31:00;;;;;;;11.43;3.37;;;;;;;;;;5055655;28;20304;-72
2022/03/19 07:33:33;;;;;;;8.70;3.50;;;;;;;;;;5067040;28;20317;-72
2022/03/19 07:35:59;;;;;;;12.27;4.20;;;;;;;;;;5051511;28;20249;-73
2022/03/19 07:38:25;;;;;;;11.60;3.70;;;;;;;;;;5062331;28;20707;-72
2022/03/19 07:43:39;;;;;;;8.93;2.97;;;;;;;;;;5056160;28;20279;-73
2022/03/19 07:46:05;;;;;;;11.00;3.50;;;;;;;;;;5054157;28;20739;-74
2022/03/19 07:48:35;;;;;;;9.87;2.83;;;;;;;;;;5070157;28;20231;-73
2022/03/19 07:51:04;;;;;;;9.13;2.87;;;;;;;;;;5038997;28;20219;-73
2022/03/19 07:53:37;;;;;;;9.23;3.20;;;;;;;;;;5073000;28;20214;-73
2022/03/19 07:56:02;;;;;;;6.70;3.00;;;;;;;;;;5070691;28;20229;-74
2022/03/19 07:58:33;;;;;;;9.60;2.57;;;;;;;;;;5065463;28;20225;-73
2022/03/19 08:00:58;;;;;;;11.30;3.30;;;;;;;;;;5043854;28;20219;-75
2022/03/19 08:03:26;;;;;;;6.53;2.60;;;;;;;;;;5039187;28;20592;-73
2022/03/19 08:05:56;;;;;;;12.93;3.13;;;;;;;;;;5066501;28;20237;-74
2022/03/19 08:08:26;;;;;;;9.07;2.90;;;;;;;;;;5080851;28;20305;-72
2022/03/19 08:10:57;;;;;;;8.37;3.13;;;;;;;;;;5048941;28;20218;-73
2022/03/19 08:13:22;;;;;;;9.43;2.70;;;;;;;;;;5043382;28;20257;-72
2022/03/19 08:15:48;;;;;;;8.23;2.97;;;;;;;;;;5052859;28;20304;-72
2022/03/19 08:18:13;;;;;;;12.30;2.90;;;;;;;;;;5065774;28;20222;-73
2022/03/19 08:20:41;;;;;;;6.43;2.60;;;;;;;;;;5028831;28;20814;-73
2022/03/19 08:23:35;;;;;;;10.83;3.37;;;;;;;;;;5041318;28;20229;-73
2022/03/19 08:26:01;;;;;;;7.90;3.07;;;;;;;;;;5068048;28;20218;-74
2022/03/19 08:28:27;;;;;;;12.20;3.07;;;;;;;;;;5104840;28;20214;-74
2022/03/19 08:30:55;;;;;;;6.27;2.57;;;;;;;;;;5070059;28;20219;-73
2022/03/19 08:33:21;;;;;;;10.73;3.20;;;;;;;;;;5097197;28;20219;-72
2022/03/19 08:35:49;;;;;;;7.43;3.17;;;;;;;;;;5082893;28;20230;-74
2022/03/19 08:41:01;;;;;;;8.77;3.23;;;;;;;;;;5092362;28;20310;-73
2022/03/19 08:43:26;;;;;;;9.07;2.87;;;;;;;;;;5097806;28;20234;-73
2022/03/19 08:45:52;;;;;;;8.23;2.80;;;;;;;;;;5053154;28;20904;-74
2022/03/19 08:48:20;;;;;;;9.17;3.40;;;;;;;;;;5085379;28;20267;-74
2022/03/19 08:50:46;;;;;;;5.57;2.47;;;;;;;;;;5092202;28;20221;-74
2022/03/19 08:53:15;;;;;;;7.03;2.90;;;;;;;;;;5056909;28;20217;-74
2022/03/19 08:56:03;;;;;;;;;;;;;;;;;;;;;
2022/03/19 08:58:39;;;;;;;7.40;2.50;;;;;;;;;;5077668;28;20229;-76
2022/03/19 09:01:05;;;;;;;7.50;2.63;;;;;;;;;;5091245;28;20241;-76
2022/03/19 09:03:32;;;;;;;8.47;2.50;;;;;;;;;;5051799;28;20217;-75
2022/03/19 09:05:58;;;;;;;5.83;2.23;;;;;;;;;;5085351;28;20237;-76
2022/03/19 09:08:26;;;;;;;8.63;2.63;;;;;;;;;;5091124;28;20214;-75
2022/03/19 09:10:55;;;;;;;8.03;2.50;;;;;;;;;;5088162;28;20294;-76
2022/03/19 09:13:23;;;;;;;9.03;2.90;;;;;;;;;;5051098;28;20611;-75
2022/03/19 09:15:48;;;;;;;11.43;2.87;;;;;;;;;;5051689;28;20228;-76
2022/03/19 09:18:18;;;;;;;8.17;2.63;;;;;;;;;;5061680;28;20222;-76
2022/03/19 09:20:43;;;;;;;5.43;2.10;;;;;;;;;;5054063;28;20219;-75
2022/03/19 09:23:11;;;;;;;8.83;2.67;;;;;;;;;;5070457;28;20275;-76
2022/03/19 09:25:39;;;;;;;7.83;3.00;;;;;;;;;;5058071;28;20271;-76
2022/03/19 09:28:04;;;;;;;5.77;2.23;;;;;;;;;;5084377;28;20234;-76
2022/03/19 09:30:32;;;;;;;4.27;2.40;;;;;;;;;;5052557;28;20237;-75
2022/03/19 09:33:00;;;;;;;6.00;2.70;;;;;;;;;;5067052;28;20219;-75
2022/03/19 09:35:26;;;;;;;9.17;2.80;;;;;;;;;;5064868;28;20215;-75
2022/03/19 09:37:51;;;;;;;7.73;2.50;;;;;;;;;;5075087;28;20218;-76
2022/03/19 09:40:20;;;;;;;7.83;2.43;;;;;;;;;;5061969;28;20272;-76
2022/03/19 09:42:50;;;;;;;5.80;2.07;;;;;;;;;;5053952;28;20367;-75
2022/03/19 09:45:18;;;;;;;6.73;2.40;;;;;;;;;;5053764;28;20222;-76
2022/03/19 09:47:43;;;;;;;7.37;2.30;;;;;;;;;;5084072;28;20221;-74
2022/03/19 09:50:13;;;;;;;7.37;2.30;;;;;;;;;;5071273;28;20218;-75
2022/03/19 09:52:41;;;;;;;9.37;2.60;;;;;;;;;;5074769;28;20234;-76
2022/03/19 09:55:12;;;;;;;5.57;2.23;;;;;;;;;;5058147;28;20248;-75
2022/03/19 09:57:38;;;;;;;5.93;2.50;;;;;;;;;;5069468;28;20229;-76
2022/03/19 10:00:04;;;;;;;6.73;2.17;;;;;;;;;;5068098;28;20224;-75
2022/03/19 10:02:57;;;;;;;6.17;2.17;;;;;;;;;;5059555;28;20218;-77
2022/03/19 10:08:41;;;;;;;5.40;2.03;;;;;;;;;;5085250;28;20233;-76
2022/03/19 10:11:07;;;;;;;5.63;1.90;;;;;;;;;;5060678;28;20276;-74
2022/03/19 10:13:33;;;;;;;4.07;1.90;;;;;;;;;;5046165;28;20223;-74
2022/03/19 10:16:00;;;;;;;5.53;1.70;;;;;;;;;;5049348;28;20276;-75
2022/03/19 10:18:29;;;;;;;6.37;1.70;;;;;;;;;;5057563;28;20222;-74
2022/03/19 10:21:02;;;;;;;4.00;1.73;;;;;;;;;;5070202;28;20217;-76
2022/03/19 10:23:39;;;;;;;4.27;1.47;;;;;;;;;;5052682;28;20252;-76
2022/03/19 10:26:07;;;;;;;4.37;1.70;;;;;;;;;;5061562;28;20245;-76
2022/03/19 10:28:34;;;;;;;4.53;1.70;;;;;;;;;;5085689;28;20255;-74
2022/03/19 10:31:03;;;;;;;6.07;1.73;;;;;;;;;;5065429;28;20230;-76
2022/03/19 10:33:34;;;;;;;4.23;1.33;;;;;;;;;;5073901;28;20229;-76
2022/03/19 10:36:08;;;;;;;3.37;1.30;;;;;;;;;;5069959;28;20719;-76
2022/03/19 10:38:45;;;;;;;3.37;1.30;;;;;;;;;;5084343;28;20210;-75
2022/03/19 10:41:17;;;;;;;4.50;1.40;;;;;;;;;;5051481;28;20230;-76
2022/03/19 10:43:48;;;;;;;4.17;1.37;;;;;;;;;;5085972;28;20268;-75
2022/03/19 10:46:17;;;;;;;5.80;1.80;;;;;;;;;;5059859;28;20391;-76
2022/03/19 10:48:49;;;;;;;4.63;1.37;;;;;;;;;;5087653;28;20224;-76
2022/03/19 10:51:15;;;;;;;5.00;1.30;;;;;;;;;;5063238;28;20233;-76
2022/03/19 10:53:42;;;;;;;4.67;1.87;;;;;;;;;;5089215;28;20205;-77
2022/03/19 10:56:08;;;;;;;5.33;1.33;;;;;;;;;;5090159;28;20210;-75
2022/03/19 10:58:36;;;;;;;4.27;1.13;;;;;;;;;;5097733;28;20254;-76
2022/03/19 11:01:01;;;;;;;3.50;1.20;;;;;;;;;;5089354;28;20231;-75
2022/03/19 11:03:29;;;;;;;3.63;1.30;;;;;;;;;;5062820;28;20780;-76
2022/03/19 11:06:05;;;;;;;3.00;1.20;;;;;;;;;;5093526;28;20216;-76
2022/03/19 11:08:38;;;;;;;4.47;1.03;;;;;;;;;;5093721;28;20279;-77
2022/03/19 11:11:14;;;;;;;4.03;1.30;;;;;;;;;;5095863;28;20221;-76
2022/03/19 11:13:46;;;;;;;2.07;1.00;;;;;;;;;;5092806;28;20286;-75
2022/03/19 11:16:11;;;;;;;3.67;1.10;;;;;;;;;;5062119;28;20626;-76
2022/03/19 11:18:42;;;;;;;2.37;1.00;;;;;;;;;;5064154;28;20214;-75
2022/03/19 11:21:14;;;;;;;3.03;1.00;;;;;;;;;;5085904;28;20237;-76
2022/03/19 11:23:48;;;;;;;2.47;1.23;;;;;;;;;;5102039;28;20806;-76
2022/03/19 11:26:13;;;;;;;2.60;1.17;;;;;;;;;;5082039;28;20759;-77
2022/03/19 11:28:39;;;;;;;3.70;1.30;;;;;;;;;;5072522;28;20265;-79
2022/03/19 11:31:10;;;;;;;2.97;1.20;;;;;;;;;;5060769;28;20230;-78
2022/03/19 11:33:38;;;;;;;3.50;1.10;;;;;;;;;;5074797;28;20734;-77
2022/03/19 11:36:06;;;;;;;2.93;1.10;;;;;;;;;;5070562;28;20222;-77
2022/03/19 11:38:34;;;;;;;3.30;1.40;;;;;;;;;;5067435;28;20308;-78
2022/03/19 11:41:00;;;;;;;3.23;1.00;;;;;;;;;;5059974;28;20236;-78
2022/03/19 11:43:30;;;;;;;2.17;1.03;;;;;;;;;;5067494;28;20270;-76
2022/03/19 11:46:10;;;;;;;2.17;1.10;;;;;;;;;;5088628;28;20368;-77
2022/03/19 11:48:36;;;;;;;2.17;0.90;;;;;;;;;;5086945;28;20657;-78
2022/03/19 11:51:20;;;;;;;1.60;1.00;;;;;;;;;;5080262;28;20226;-78
2022/03/19 11:54:00;;;;;;;2.83;1.13;;;;;;;;;;5062479;28;20856;-77
2022/03/19 11:56:35;;;;;;;2.87;1.00;;;;;;;;;;5084430;28;20222;-77
2022/03/19 11:59:04;;;;;;;2.60;1.13;;;;;;;;;;5087713;28;20272;-78
2022/03/19 12:01:54;;;;;;;1.77;1.10;;;;;;;;;;5084305;28;20301;-78
2022/03/19 12:04:26;;;;;;;1.80;0.90;;;;;;;;;;5100811;28;20203;-78
2022/03/19 12:06:58;;;;;;;1.30;0.80;;;;;;;;;;5091039;28;20218;-77
2022/03/19 12:09:39;;;;;;;2.37;0.90;;;;;;;;;;5100357;28;20223;-80
2022/03/19 12:12:06;;;;;;;2.90;0.83;;;;;;;;;;5100539;28;20206;-79
2022/03/19 12:14:33;;;;;;;1.87;0.80;;;;;;;;;;5094887;28;20222;-77
2022/03/19 12:17:15;;;;;;;3.07;1.10;;;;;;;;;;5080486;28;20256;-80
2022/03/19 12:20:13;;;;;;;1.80;1.03;;;;;;;;;;5092759;28;20615;-77
2022/03/19 12:22:40;;;;;;;2.23;1.10;;;;;;;;;;5075732;28;20207;-78
2022/03/19 12:25:13;;;;;;;3.20;1.13;;;;;;;;;;5089919;28;20214;-78
2022/03/19 12:27:39;;;;;;;3.40;1.03;;;;;;;;;;5080864;28;20220;-78
2022/03/19 12:30:07;;;;;;;4.83;1.20;;;;;;;;;;5092324;28;20218;-78
2022/03/19 12:32:49;;;;;;;4.63;1.13;;;;;;;;;;5077918;28;20234;-77
2022/03/19 12:35:15;;;;;;;2.60;1.00;;;;;;;;;;5094328;28;20698;-78
2022/03/19 12:37:54;;;;;;;2.17;1.13;;;;;;;;;;5074141;28;20585;-78
2022/03/19 12:40:23;;;;;;;2.23;1.10;;;;;;;;;;5084885;28;20229;-77
2022/03/19 12:42:50;;;;;;;1.73;1.00;;;;;;;;;;5058538;28;20218;-78
2022/03/19 12:45:17;;;;;;;4.30;1.00;;;;;;;;;;5091777;28;20282;-77
2022/03/19 12:47:42;;;;;;;1.30;0.80;;;;;;;;;;5079955;28;20306;-77
2022/03/19 12:50:10;;;;;;;1.83;0.97;;;;;;;;;;5091717;28;20230;-77
2022/03/19 12:52:43;;;;;;;3.00;1.13;;;;;;;;;;5092969;28;20696;-80
2022/03/19 12:55:18;;;;;;;2.43;1.20;;;;;;;;;;5081219;28;20218;-77
2022/03/19 12:57:45;;;;;;;2.60;1.17;;;;;;;;;;5071509;28;20226;-77
2022/03/19 13:00:11;;;;;;;2.60;1.10;;;;;;;;;;5069398;28;20679;-79
2022/03/19 13:02:48;;;;;;;2.47;0.97;;;;;;;;;;5086003;28;20245;-77
2022/03/19 13:05:15;;;;;;;2.97;0.90;;;;;;;;;;5073864;28;20305;-78
2022/03/19 13:07:59;;;;;;;3.23;0.93;;;;;;;;;;5081066;28;20247;-76
2022/03/19 13:10:26;;;;;;;2.60;0.90;;;;;;;;;;5059049;28;20675;-79
2022/03/19 13:13:05;;;;;;;1.80;0.90;;;;;;;;;;5072895;28;20293;-79
2022/03/19 13:15:33;;;;;;;2.80;1.00;;;;;;;;;;5065196;28;20222;-78
2022/03/19 13:18:01;;;;;;;3.27;0.90;;;;;;;;;;5083902;28;20759;-76
2022/03/19 13:20:29;;;;;;;2.07;0.77;;;;;;;;;;5045367;28;20215;-77
2022/03/19 13:23:02;;;;;;;1.27;0.87;;;;;;;;;;5084905;28;20275;-77
2022/03/19 13:25:30;;;;;;;2.07;1.00;;;;;;;;;;5071687;28;20226;-78
2022/03/19 13:28:01;;;;;;;3.10;0.93;;;;;;;;;;5070565;28;20224;-76
2022/03/19 13:30:27;;;;;;;1.80;0.80;;;;;;;;;;5072351;28;20313;-78
2022/03/19 13:32:56;;;;;;;3.03;1.03;;;;;;;;;;5084097;28;20659;-77
2022/03/19 13:35:39;;;;;;;3.10;0.90;;;;;;;;;;5084906;28;20237;-75
2022/03/19 13:38:11;;;;;;;1.87;1.00;;;;;;;;;;5091186;28;20222;-77
2022/03/19 13:40:40;;;;;;;2.83;1.20;;;;;;;;;;5070503;28;20287;-78
2022/03/19 13:43:09;;;;;;;2.27;1.00;;;;;;;;;;5095848;28;20225;-76
2022/03/19 13:45:35;;;;;;;2.70;1.03;;;;;;;;;;5069112;28;20225;-78
2022/03/19 13:48:06;;;;;;;2.70;0.97;;;;;;;;;;5064611;28;20900;-80
2022/03/19 13:50:35;;;;;;;2.00;0.90;;;;;;;;;;5074842;28;20223;-74
2022/03/19 13:53:06;;;;;;;3.20;1.03;;;;;;;;;;5078238;28;20722;-75
2022/03/19 13:55:38;;;;;;;3.07;1.13;;;;;;;;;;5079801;28;20277;-76
2022/03/19 13:58:06;;;;;;;2.37;0.80;;;;;;;;;;5100741;28;20267;-74
2022/03/19 14:00:33;;;;;;;2.60;1.00;;;;;;;;;;5132653;28;20221;-74
2022/03/19 14:03:00;;;;;;;2.87;1.17;;;;;;;;;;5100363;28;20227;-79
2022/03/19 14:05:28;;;;;;;3.70;0.93;;;;;;;;;;5095713;28;20211;-78
2022/03/19 14:07:56;;;;;;;1.63;0.90;;;;;;;;;;5074590;28;20253;-79
2022/03/19 14:10:24;;;;;;;2.83;0.83;;;;;;;;;;5077868;28;20223;-77
2022/03/19 14:13:02;;;;;;;2.53;1.00;;;;;;;;;;5095671;28;20213;-76
2022/03/19 14:15:37;;;;;;;3.13;1.20;;;;;;;;;;5062830;28;20285;-77
2022/03/19 14:18:07;;;;;;;2.33;0.97;;;;;;;;;;5081209;28;20297;-80
2022/03/19 14:20:33;;;;;;;3.20;1.23;;;;;;;;;;5092129;28;20471;-77
2022/03/19 14:22:58;;;;;;;2.40;1.73;;;;;;;;;;5078321;28;20300;-77
2022/03/19 14:25:26;;;;;;;1.97;0.80;;;;;;;;;;5071225;28;20238;-81
2022/03/19 14:28:03;;;;;;;2.03;0.90;;;;;;;;;;5063249;28;20254;-79
2022/03/19 14:30:30;;;;;;;2.20;1.03;;;;;;;;;;5048188;28;20236;-79
2022/03/19 14:32:59;;;;;;;1.70;1.00;;;;;;;;;;5065585;28;20214;-80
2022/03/19 14:36:03;;;;;;;1.30;0.60;;;;;;;;;;5082973;28;20219;-80
2022/03/19 14:38:37;;;;;;;2.27;0.70;;;;;;;;;;4964935;28;20225;-80
2022/03/19 14:41:04;;;;;;;2.10;0.90;;;;;;;;;;5076813;28;20260;-80
2022/03/19 14:43:30;;;;;;;4.47;1.00;;;;;;;;;;5091594;28;20221;-80
2022/03/19 14:45:57;;;;;;;2.03;0.87;;;;;;;;;;5039681;28;20297;-79
2022/03/19 14:48:24;;;;;;;2.80;1.10;;;;;;;;;;5076151;28;20229;-79
2022/03/19 14:50:55;;;;;;;3.53;1.10;;;;;;;;;;5065880;28;20222;-76
2022/03/19 14:53:21;;;;;;;2.80;0.93;;;;;;;;;;5036649;28;20210;-77
2022/03/19 14:55:47;;;;;;;1.27;0.93;;;;;;;;;;5037556;28;20222;-77
2022/03/19 14:58:15;;;;;;;2.30;1.00;;;;;;;;;;5065671;28;20210;-76
2022/03/19 15:00:40;;;;;;;1.43;0.90;;;;;;;;;;5036423;28;20230;-77
2022/03/19 15:03:09;;;;;;;1.93;0.77;;;;;;;;;;5029273;28;20293;-76
2022/03/19 15:05:35;;;;;;;2.10;1.30;;;;;;;;;;5051921;28;20210;-77
2022/03/19 15:08:03;;;;;;;1.87;0.97;;;;;;;;;;5016912;28;20645;-76